createdAt,value
2022-09-11T00:01:17.022Z,21.93
2022-09-11T00:03:45.683Z,21.91
2022-09-11T00:06:27.518Z,21.89
2022-09-11T00:09:00.335Z,21.86
2022-09-11T00:11:33.123Z,21.85
2022-09-11T00:14:00.265Z,21.84
2022-09-11T00:16:39.685Z,21.79
2022-09-11T00:19:08.872Z,21.78
2022-09-11T00:21:36.403Z,21.77
2022-09-11T00:24:04.360Z,21.75
2022-09-11T00:26:31.151Z,21.72
2022-09-11T00:28:57.666Z,21.70
2022-09-11T00:31:27.952Z,21.67
2022-09-11T00:33:55.145Z,21.64
2022-09-11T00:36:24.743Z,21.60
2022-09-11T00:38:52.152Z,21.60
2022-09-11T00:41:39.478Z,21.58
2022-09-11T00:44:29.172Z,21.54
2022-09-11T00:47:02.033Z,21.54
2022-09-11T00:49:38.491Z,21.51
2022-09-11T00:52:17.196Z,21.48
2022-09-11T00:54:54.135Z,21.48
2022-09-11T00:57:24.502Z,21.47
2022-09-11T00:59:54.663Z,21.46
2022-09-11T01:02:27.250Z,21.45
2022-09-11T01:04:55.236Z,21.43
2022-09-11T01:07:23.213Z,21.42
2022-09-11T01:09:51.197Z,21.42
2022-09-11T01:12:23.777Z,21.39
2022-09-11T01:15:05.367Z,21.34
2022-09-11T01:17:47.996Z,21.34
2022-09-11T01:20:17.316Z,21.31
2022-09-11T01:23:12.301Z,21.25
2022-09-11T01:25:50.907Z,21.25
2022-09-11T01:28:24.432Z,21.23
2022-09-11T01:31:01.286Z,21.19
2022-09-11T01:33:50.950Z,21.15
2022-09-11T01:36:28.798Z,21.14
2022-09-11T01:39:02.246Z,21.13
2022-09-11T01:41:53.123Z,21.10
2022-09-11T01:45:00.142Z,21.06
2022-09-11T01:47:30.070Z,21.08
2022-09-11T01:50:03.049Z,21.07
2022-09-11T01:52:36.998Z,21.05
2022-09-11T01:55:11.900Z,21.04
2022-09-11T01:57:51.567Z,21.04
2022-09-11T02:00:18.820Z,21.05
2022-09-11T02:02:52.018Z,21.04
2022-09-11T02:05:23.504Z,21.05
2022-09-11T02:07:54.631Z,21.06
2022-09-11T02:10:39.503Z,21.05
2022-09-11T02:13:13.659Z,21.08
2022-09-11T02:15:47.082Z,21.10
2022-09-11T02:18:24.752Z,21.09
2022-09-11T02:20:52.806Z,21.13
2022-09-11T02:23:20.640Z,21.12
2022-09-11T02:25:47.998Z,21.10
2022-09-11T02:28:14.542Z,21.08
2022-09-11T02:30:43.047Z,21.07
2022-09-11T02:33:28.965Z,21.03
2022-09-11T02:36:03.802Z,21.05
2022-09-11T02:38:41.153Z,21.03
2022-09-11T02:41:16.463Z,21.02
2022-09-11T02:44:20.604Z,20.98
2022-09-11T02:47:19.093Z,20.97
2022-09-11T02:50:36.869Z,20.95
2022-09-11T02:53:34.650Z,20.94
2022-09-11T02:56:33.088Z,20.93
2022-09-11T02:59:06.708Z,20.94
2022-09-11T03:01:50.365Z,20.92
2022-09-11T03:04:18.316Z,20.95
2022-09-11T03:06:45.216Z,20.95
2022-09-11T03:09:11.716Z,20.96
2022-09-11T03:11:38.700Z,20.96
2022-09-11T03:14:05.204Z,20.95
2022-09-11T03:16:31.765Z,20.95
2022-09-11T03:18:58.374Z,20.93
2022-09-11T03:21:24.826Z,20.94
2022-09-11T03:23:51.304Z,20.94
2022-09-11T03:26:17.748Z,20.95
2022-09-11T03:28:44.483Z,20.95
2022-09-11T03:31:11.410Z,20.96
2022-09-11T03:33:37.901Z,20.95
2022-09-11T03:36:04.731Z,20.96
2022-09-11T03:38:31.272Z,20.97
2022-09-11T03:40:58.393Z,20.98
2022-09-11T03:43:25.208Z,21.00
2022-09-11T03:45:52.071Z,21.00
2022-09-11T03:48:18.782Z,21.02
2022-09-11T03:50:45.914Z,21.03
2022-09-11T03:53:12.410Z,21.06
2022-09-11T03:55:38.894Z,21.08
2022-09-11T03:58:07.140Z,21.09
2022-09-11T04:00:33.812Z,21.12
2022-09-11T04:03:00.432Z,21.13
2022-09-11T04:05:27.378Z,21.16
2022-09-11T04:07:55.099Z,21.17
2022-09-11T04:10:21.874Z,21.20
2022-09-11T04:12:48.687Z,21.22
2022-09-11T04:15:15.333Z,21.24
2022-09-11T04:17:41.788Z,21.26
2022-09-11T04:20:08.900Z,21.26
2022-09-11T04:22:35.648Z,21.26
2022-09-11T04:25:02.134Z,21.25
2022-09-11T04:27:28.609Z,21.26
2022-09-11T04:29:55.128Z,21.24
2022-09-11T04:32:22.259Z,21.24
2022-09-11T04:34:48.836Z,21.23
2022-09-11T04:37:16.552Z,21.22
2022-09-11T04:39:43.390Z,21.21
2022-09-11T04:42:10.508Z,21.20
2022-09-11T04:44:37.531Z,21.19
2022-09-11T04:47:04.193Z,21.17
2022-09-11T04:49:30.808Z,21.15
2022-09-11T04:52:02.672Z,21.13
2022-09-11T04:54:29.144Z,21.08
2022-09-11T04:56:55.618Z,21.04
2022-09-11T04:59:23.823Z,20.99
2022-09-11T05:01:50.428Z,20.97
2022-09-11T05:04:20.834Z,20.94
2022-09-11T05:06:49.478Z,20.94
2022-09-11T05:09:17.628Z,20.93
2022-09-11T05:11:44.284Z,20.93
2022-09-11T05:14:11.664Z,20.92
2022-09-11T05:16:38.354Z,20.92
2022-09-11T05:19:05.139Z,20.94
2022-09-11T05:21:32.278Z,20.93
2022-09-11T05:24:01.174Z,20.90
2022-09-11T05:26:30.565Z,20.90
2022-09-11T05:29:02.353Z,20.90
2022-09-11T05:31:29.164Z,20.92
2022-09-11T05:33:56.541Z,20.91
2022-09-11T05:36:24.029Z,20.89
2022-09-11T05:38:50.835Z,20.88
2022-09-11T05:41:17.584Z,20.87
2022-09-11T05:43:44.495Z,20.88
2022-09-11T05:46:14.049Z,20.87
2022-09-11T05:48:40.977Z,20.89
2022-09-11T05:51:11.472Z,20.88
2022-09-11T05:53:38.052Z,20.91
2022-09-11T05:56:08.875Z,20.91
2022-09-11T05:58:36.057Z,20.93
2022-09-11T06:01:08.397Z,20.94
2022-09-11T06:03:36.776Z,20.95
2022-09-11T06:06:05.482Z,20.96
2022-09-11T06:08:33.503Z,20.96
2022-09-11T06:11:00.688Z,21.00
2022-09-11T06:13:31.855Z,20.95
2022-09-11T06:15:58.350Z,20.95
2022-09-11T06:18:24.856Z,20.94
2022-09-11T06:21:07.067Z,20.91
2022-09-11T06:23:35.184Z,20.95
2022-09-11T06:26:11.759Z,20.94
2022-09-11T06:28:39.081Z,21.01
2022-09-11T06:31:11.586Z,21.02
2022-09-11T06:33:40.161Z,21.04
2022-09-11T06:36:07.986Z,21.09
2022-09-11T06:38:35.501Z,21.15
2022-09-11T06:41:04.036Z,21.15
2022-09-11T06:43:31.529Z,21.17
2022-09-11T06:46:12.886Z,21.14
2022-09-11T06:48:40.771Z,21.18
2022-09-11T06:51:11.373Z,21.18
2022-09-11T06:53:38.967Z,21.19
2022-09-11T06:56:06.918Z,21.19
2022-09-11T06:58:33.804Z,21.23
2022-09-11T07:01:04.826Z,21.21
2022-09-11T07:03:32.134Z,21.22
2022-09-11T07:05:59.576Z,21.22
2022-09-11T07:08:26.629Z,21.21
2022-09-11T07:10:53.204Z,21.20
2022-09-11T07:13:19.704Z,21.21
2022-09-11T07:15:49.220Z,21.23
2022-09-11T07:18:16.104Z,21.22
2022-09-11T07:20:42.601Z,21.21
2022-09-11T07:23:09.117Z,21.21
2022-09-11T07:25:38.363Z,21.20
2022-09-11T07:28:05.188Z,21.18
2022-09-11T07:30:32.527Z,21.17
2022-09-11T07:32:59.519Z,21.16
2022-09-11T07:35:25.972Z,21.16
2022-09-11T07:37:52.863Z,21.13
2022-09-11T07:40:19.390Z,21.13
2022-09-11T07:42:45.867Z,21.12
2022-09-11T07:45:12.318Z,21.11
2022-09-11T07:47:38.800Z,21.08
2022-09-11T07:50:06.139Z,21.08
2022-09-11T07:52:33.069Z,21.05
2022-09-11T07:55:01.352Z,21.03
2022-09-11T07:57:30.420Z,21.02
2022-09-11T07:59:56.943Z,21.01
2022-09-11T08:02:23.773Z,20.97
2022-09-11T08:04:51.649Z,20.96
2022-09-11T08:07:18.474Z,20.96
2022-09-11T08:09:44.995Z,20.97
2022-09-11T08:12:12.068Z,20.99
2022-09-11T08:14:38.705Z,21.02
2022-09-11T08:17:05.208Z,21.04
2022-09-11T08:19:32.764Z,21.08
2022-09-11T08:21:59.261Z,21.10
2022-09-11T08:24:27.339Z,21.13
2022-09-11T08:26:53.836Z,21.13
2022-09-11T08:29:20.304Z,21.14
2022-09-11T08:31:46.768Z,21.14
2022-09-11T08:34:13.359Z,21.13
2022-09-11T08:36:40.012Z,21.13
2022-09-11T08:39:06.808Z,21.12
2022-09-11T08:41:48.845Z,21.09
2022-09-11T08:44:50.001Z,21.10
2022-09-11T08:47:22.429Z,21.15
2022-09-11T08:50:19.111Z,21.15
2022-09-11T08:52:46.223Z,21.22
2022-09-11T08:55:14.632Z,21.24
2022-09-11T08:57:46.630Z,21.23
2022-09-11T09:00:20.311Z,21.24
2022-09-11T09:03:12.580Z,21.28
2022-09-11T09:06:04.354Z,21.33
2022-09-11T09:08:37.332Z,21.38
2022-09-11T09:11:22.100Z,21.40
2022-09-11T09:13:55.357Z,21.46
2022-09-11T09:16:59.208Z,21.52
2022-09-11T09:19:32.434Z,21.60
2022-09-11T09:22:12.355Z,21.63
2022-09-11T09:24:50.903Z,21.71
2022-09-11T09:27:31.113Z,21.81
2022-09-11T09:30:01.225Z,21.91
2022-09-11T09:32:36.672Z,21.94
2022-09-11T09:35:13.254Z,22.00
2022-09-11T09:37:39.824Z,22.08
2022-09-11T09:40:10.333Z,22.12
2022-09-11T09:42:47.535Z,22.17
2022-09-11T09:45:50.225Z,22.23
2022-09-11T09:48:16.925Z,22.33
2022-09-11T09:50:46.179Z,22.36
2022-09-11T09:53:32.800Z,22.38
2022-09-11T09:56:02.000Z,22.44
2022-09-11T09:58:34.387Z,22.45
2022-09-11T10:01:01.039Z,22.48
2022-09-11T10:03:27.598Z,22.49
2022-09-11T10:05:55.964Z,22.50
2022-09-11T10:08:29.237Z,22.52
2022-09-11T10:11:06.976Z,22.51
2022-09-11T10:13:52.720Z,22.50
2022-09-11T10:16:22.619Z,22.53
2022-09-11T10:18:49.487Z,22.53
2022-09-11T10:21:22.968Z,22.50
2022-09-11T10:23:54.547Z,22.51
2022-09-11T10:26:30.172Z,22.50
2022-09-11T10:29:21.302Z,22.48
2022-09-11T10:31:54.493Z,22.49
2022-09-11T10:34:24.075Z,22.51
2022-09-11T10:36:56.385Z,22.52
2022-09-11T10:39:25.919Z,22.55
2022-09-11T10:41:55.050Z,22.58
2022-09-11T10:44:22.569Z,22.60
2022-09-11T10:47:22.063Z,22.62
2022-09-11T10:49:48.947Z,22.69
2022-09-11T10:52:15.614Z,22.74
2022-09-11T10:55:07.564Z,22.72
2022-09-11T10:57:40.007Z,22.79
2022-09-11T11:00:25.685Z,22.80
2022-09-11T11:02:54.482Z,22.83
2022-09-11T11:05:39.233Z,22.83
2022-09-11T11:08:12.197Z,22.89
2022-09-11T11:10:42.405Z,22.89
2022-09-11T11:13:37.204Z,22.86
2022-09-11T11:16:29.194Z,22.84
2022-09-11T11:19:07.821Z,22.85
2022-09-11T11:21:53.053Z,22.84
2022-09-11T11:24:19.604Z,22.89
2022-09-11T11:27:00.011Z,22.88
2022-09-11T11:29:47.199Z,22.89
2022-09-11T11:32:27.897Z,22.91
2022-09-11T11:35:17.914Z,22.94
2022-09-11T11:37:49.119Z,23.01
2022-09-11T11:40:36.933Z,23.02
2022-09-11T11:43:11.438Z,23.08
2022-09-11T11:46:02.429Z,23.12
2022-09-11T11:48:54.854Z,23.13
2022-09-11T11:51:32.736Z,23.15
2022-09-11T11:54:17.385Z,23.16
2022-09-11T11:57:05.095Z,23.19
2022-09-11T11:59:46.781Z,23.20
2022-09-11T12:02:22.589Z,23.23
2022-09-11T12:05:03.368Z,23.25
2022-09-11T12:07:33.236Z,23.32
2022-09-11T12:10:01.976Z,23.36
2022-09-11T12:12:33.849Z,23.39
2022-09-11T12:15:10.043Z,23.42
2022-09-11T12:17:39.802Z,23.50
2022-09-11T12:20:13.479Z,23.56
2022-09-11T12:22:48.707Z,23.66
2022-09-11T12:25:21.396Z,23.77
2022-09-11T12:27:50.844Z,23.90
2022-09-11T12:30:17.472Z,23.99
2022-09-11T12:32:51.293Z,24.05
2022-09-11T12:35:32.424Z,24.13
2022-09-11T12:38:13.259Z,24.17
2022-09-11T12:40:39.680Z,24.27
2022-09-11T12:43:28.015Z,24.31
2022-09-11T12:45:54.689Z,24.45
2022-09-11T12:48:42.712Z,24.56
2022-09-11T12:51:21.364Z,24.63
2022-09-11T12:53:51.378Z,24.72
2022-09-11T12:56:22.787Z,24.74
2022-09-11T12:58:59.840Z,24.76
2022-09-11T13:01:31.110Z,24.81
2022-09-11T13:04:01.123Z,24.85
2022-09-11T13:06:48.673Z,24.84
2022-09-11T13:09:26.277Z,24.87
2022-09-11T13:11:54.640Z,24.91
2022-09-11T13:14:28.238Z,24.89
2022-09-11T13:16:56.963Z,24.92
2022-09-11T13:19:31.246Z,24.90
2022-09-11T13:21:57.726Z,24.89
2022-09-11T13:24:27.769Z,24.88
2022-09-11T13:27:04.909Z,24.87
2022-09-11T13:29:35.250Z,24.92
2022-09-11T13:32:15.143Z,24.90
2022-09-11T13:34:53.838Z,24.92
2022-09-11T13:37:40.925Z,24.93
2022-09-11T13:40:18.296Z,24.96
2022-09-11T13:42:44.988Z,25.01
2022-09-11T13:45:17.965Z,25.03
2022-09-11T13:47:44.808Z,25.10
2022-09-11T13:50:15.208Z,25.13
2022-09-11T13:52:43.721Z,25.19
2022-09-11T13:55:12.318Z,25.27
2022-09-11T13:58:02.830Z,25.34
2022-09-11T14:00:42.965Z,25.38
2022-09-11T14:03:20.347Z,25.43
2022-09-11T14:05:59.320Z,25.44
2022-09-11T14:08:32.745Z,25.52
2022-09-11T14:11:11.151Z,25.57
2022-09-11T14:13:48.940Z,25.60
2022-09-11T14:16:15.414Z,25.68
2022-09-11T14:19:03.814Z,25.69
2022-09-11T14:21:36.295Z,25.75
2022-09-11T14:24:07.217Z,25.81
2022-09-11T14:26:36.555Z,25.86
2022-09-11T14:29:23.146Z,25.89
2022-09-11T14:31:53.554Z,25.98
2022-09-11T14:34:30.096Z,26.01
2022-09-11T14:37:11.221Z,26.06
2022-09-11T14:39:49.207Z,26.08
2022-09-11T14:42:19.344Z,26.11
2022-09-11T14:44:45.832Z,26.13
2022-09-11T14:47:15.635Z,26.12
2022-09-11T14:49:42.175Z,26.12
2022-09-11T14:52:13.824Z,26.10
2022-09-11T14:54:40.557Z,26.10
2022-09-11T14:57:20.331Z,26.07
2022-09-11T14:59:47.031Z,26.10
2022-09-11T15:02:16.151Z,26.10
2022-09-11T15:04:42.804Z,26.09
2022-09-11T15:07:11.782Z,26.09
2022-09-11T15:09:38.588Z,26.08
2022-09-11T15:12:10.180Z,26.07
2022-09-11T15:14:55.647Z,26.07
2022-09-11T15:17:25.197Z,26.08
2022-09-11T15:19:52.747Z,26.08
2022-09-11T15:22:19.675Z,26.07
2022-09-11T15:24:49.409Z,26.08
2022-09-11T15:27:17.156Z,26.09
2022-09-11T15:29:44.275Z,26.08
2022-09-11T15:32:11.426Z,26.10
2022-09-11T15:34:39.794Z,26.10
2022-09-11T15:37:06.348Z,26.11
2022-09-11T15:39:33.997Z,26.09
2022-09-11T15:42:01.967Z,26.10
2022-09-11T15:44:29.101Z,26.11
2022-09-11T15:46:57.421Z,26.12
2022-09-11T15:49:24.640Z,26.14
2022-09-11T15:51:53.761Z,26.13
2022-09-11T15:54:20.581Z,26.16
2022-09-11T15:56:47.079Z,26.17
2022-09-11T15:59:15.258Z,26.17
2022-09-11T16:01:42.816Z,26.17
2022-09-11T16:04:11.538Z,26.17
2022-09-11T16:06:41.111Z,26.15
2022-09-11T16:09:13.098Z,26.14
2022-09-11T16:11:40.899Z,26.12
2022-09-11T16:14:08.816Z,26.10
2022-09-11T16:16:35.630Z,26.10
2022-09-11T16:19:02.141Z,26.07
2022-09-11T16:21:29.055Z,26.06
2022-09-11T16:24:00.642Z,26.05
2022-09-11T16:26:29.070Z,26.04
2022-09-11T16:28:55.593Z,26.04
2022-09-11T16:31:22.127Z,26.03
2022-09-11T16:33:50.282Z,26.02
2022-09-11T16:36:21.384Z,26.00
2022-09-11T16:38:50.210Z,26.00
2022-09-11T16:41:19.830Z,25.97
2022-09-11T16:43:48.979Z,25.94
2022-09-11T16:46:24.503Z,25.92
2022-09-11T16:48:54.486Z,25.94
2022-09-11T16:51:23.479Z,25.92
2022-09-11T16:53:50.553Z,25.91
2022-09-11T16:56:20.333Z,25.88
2022-09-11T16:58:47.301Z,25.87
2022-09-11T17:01:22.568Z,25.83
2022-09-11T17:03:51.278Z,25.83
2022-09-11T17:06:22.202Z,25.83
2022-09-11T17:08:52.319Z,25.77
2022-09-11T17:11:21.137Z,25.74
2022-09-11T17:13:48.344Z,25.71
2022-09-11T17:16:18.231Z,25.66
2022-09-11T17:18:49.384Z,25.61
2022-09-11T17:21:16.404Z,25.56
2022-09-11T17:23:43.665Z,25.51
2022-09-11T17:26:12.640Z,25.44
2022-09-11T17:28:40.566Z,25.38
2022-09-11T17:31:09.175Z,25.30
2022-09-11T17:33:40.266Z,25.22
2022-09-11T17:36:10.747Z,25.17
2022-09-11T17:38:39.591Z,25.09
2022-09-11T17:41:08.244Z,25.01
2022-09-11T17:43:36.583Z,24.92
2022-09-11T17:46:11.775Z,24.82
2022-09-11T17:48:39.675Z,24.74
2022-09-11T17:51:11.143Z,24.66
2022-09-11T17:53:39.447Z,24.59
2022-09-11T17:56:09.755Z,24.50
2022-09-11T17:58:36.964Z,24.43
2022-09-11T18:01:04.566Z,24.37
2022-09-11T18:03:32.239Z,24.28
2022-09-11T18:05:59.948Z,24.22
2022-09-11T18:08:26.590Z,24.15
2022-09-11T18:11:01.491Z,24.05
2022-09-11T18:13:31.637Z,23.97
2022-09-11T18:15:58.578Z,23.90
2022-09-11T18:18:25.227Z,23.83
2022-09-11T18:20:55.411Z,23.76
2022-09-11T18:23:24.781Z,23.67
2022-09-11T18:25:51.677Z,23.61
2022-09-11T18:28:29.788Z,23.54
2022-09-11T18:31:06.464Z,23.45
2022-09-11T18:33:33.611Z,23.41
2022-09-11T18:36:05.916Z,23.33
2022-09-11T18:38:33.173Z,23.27
2022-09-11T18:41:00.691Z,23.20
2022-09-11T18:43:28.048Z,23.14
2022-09-11T18:45:54.990Z,23.07
2022-09-11T18:48:21.768Z,23.03
2022-09-11T18:50:48.234Z,22.98
2022-09-11T18:53:15.273Z,22.93
2022-09-11T18:55:41.907Z,22.87
2022-09-11T18:58:08.442Z,22.83
2022-09-11T19:00:36.786Z,22.78
2022-09-11T19:03:03.749Z,22.74
2022-09-11T19:05:31.098Z,22.70
2022-09-11T19:08:00.172Z,22.67
2022-09-11T19:10:26.910Z,22.62
2022-09-11T19:12:54.191Z,22.57
2022-09-11T19:15:20.718Z,22.54
2022-09-11T19:17:48.902Z,22.51
2022-09-11T19:20:16.283Z,22.50
2022-09-11T19:22:42.797Z,22.46
2022-09-11T19:25:10.014Z,22.44
2022-09-11T19:27:37.229Z,22.39
2022-09-11T19:30:06.212Z,22.35
2022-09-11T19:32:33.224Z,22.33
2022-09-11T19:35:00.445Z,22.29
2022-09-11T19:37:28.298Z,22.25
2022-09-11T19:39:57.070Z,22.21
2022-09-11T19:42:23.910Z,22.18
2022-09-11T19:44:55.609Z,22.14
2022-09-11T19:47:24.812Z,22.11
2022-09-11T19:49:51.310Z,22.10
2022-09-11T19:52:17.901Z,22.11
2022-09-11T19:54:44.379Z,22.06
2022-09-11T19:57:10.879Z,22.00
2022-09-11T19:59:38.104Z,21.95
2022-09-11T20:02:08.876Z,21.91
2022-09-11T20:11:01.381Z,21.80
2022-09-11T20:21:17.493Z,21.69
2022-09-11T20:30:14.309Z,21.59
2022-09-11T20:33:09.437Z,21.56
2022-09-11T20:35:35.936Z,21.57
2022-09-11T20:38:02.441Z,21.54
2022-09-11T20:40:28.942Z,21.51
2022-09-11T20:42:55.504Z,21.48
2022-09-11T20:45:21.988Z,21.46
2022-09-11T20:47:48.473Z,21.43
2022-09-11T20:50:15.213Z,21.40
2022-09-11T20:52:46.623Z,21.37
2022-09-11T20:55:13.208Z,21.36
2022-09-11T20:57:39.739Z,21.31
2022-09-11T21:00:07.285Z,21.30
2022-09-11T21:02:34.165Z,21.25
2022-09-11T21:05:00.849Z,21.25
2022-09-11T21:07:27.418Z,21.21
2022-09-11T21:09:54.017Z,21.18
2022-09-11T21:12:20.587Z,21.16
2022-09-11T21:14:47.158Z,21.14
2022-09-11T21:17:13.648Z,21.12
2022-09-11T21:19:40.167Z,21.10
2022-09-11T21:22:06.630Z,21.09
2022-09-11T21:24:33.254Z,21.08
2022-09-11T21:26:59.739Z,21.07
2022-09-11T21:29:26.242Z,21.05
2022-09-11T21:31:53.316Z,21.04
2022-09-11T21:34:19.835Z,21.02
2022-09-11T21:36:46.304Z,21.01
2022-09-11T21:39:13.019Z,21.00
2022-09-11T21:41:39.530Z,20.98
2022-09-11T21:44:06.158Z,20.97
2022-09-11T21:46:32.898Z,20.95
2022-09-11T21:48:59.968Z,20.93
2022-09-11T21:51:26.504Z,20.91
2022-09-11T21:53:58.877Z,20.88
2022-09-11T21:56:31.040Z,20.84
2022-09-11T21:58:58.468Z,20.82
2022-09-11T22:01:26.503Z,20.81
2022-09-11T22:03:54.423Z,20.78
2022-09-11T22:06:24.663Z,20.78
2022-09-11T22:08:52.035Z,20.76
2022-09-11T22:11:18.563Z,20.74
2022-09-11T22:13:46.699Z,20.72
2022-09-11T22:16:18.733Z,20.69
2022-09-11T22:18:49.652Z,20.66
2022-09-11T22:21:16.680Z,20.64
2022-09-11T22:23:43.437Z,20.63
2022-09-11T22:26:15.803Z,20.58
2022-09-11T22:28:43.598Z,20.56
2022-09-11T22:31:19.487Z,20.51
2022-09-11T22:33:46.200Z,20.51
2022-09-11T22:36:21.779Z,20.46
2022-09-11T22:38:48.758Z,20.45
2022-09-11T22:41:16.356Z,20.44
2022-09-11T22:43:42.899Z,20.41
2022-09-11T22:46:09.678Z,20.41
2022-09-11T22:48:36.977Z,20.38
2022-09-11T22:51:03.840Z,20.36
2022-09-11T22:53:32.083Z,20.33
2022-09-11T22:55:58.711Z,20.31
2022-09-11T22:58:25.510Z,20.27
2022-09-11T23:00:54.825Z,20.26
2022-09-11T23:03:21.556Z,20.26
2022-09-11T23:06:06.668Z,20.24
2022-09-11T23:08:39.119Z,20.21
2022-09-11T23:11:06.001Z,20.19
2022-09-11T23:13:33.823Z,20.14
2022-09-11T23:16:00.701Z,20.14
2022-09-11T23:18:28.008Z,20.15
2022-09-11T23:20:55.812Z,20.13
2022-09-11T23:23:23.486Z,20.13
2022-09-11T23:25:50.434Z,20.12
2022-09-11T23:28:17.104Z,20.10
2022-09-11T23:30:44.030Z,20.08
2022-09-11T23:33:11.049Z,20.06
2022-09-11T23:35:39.360Z,20.03
2022-09-11T23:40:33.830Z,19.99
2022-09-11T23:43:02.053Z,19.97
2022-09-11T23:45:29.097Z,19.95
2022-09-11T23:47:55.632Z,19.93
2022-09-11T23:50:22.183Z,19.91
2022-09-11T23:52:49.026Z,19.89
2022-09-11T23:55:17.380Z,19.86
2022-09-11T23:57:43.896Z,19.85
